Flight Track Log - Related Links

Times and Time Zones

All times are in EDT time to prevent confusion due to time zone crossing. See the ASQ446T flight status page for this flight to view local times or setup timezone preferences in your user account.

Time Position Orientation Groundspeed Altitude Reporting Facility
EDT Latitude Longitude Course Direction KTS MPH feet Rate Location/Type
Sat 08:32:03 PM 29.9683 -95.3475 221° Southwest 151 174 600  Level Houston Center
Sat 08:32:52 PM 29.9492 -95.3667 221° Southwest 168 193 2,900 1,810 Climbing Houston Center
Sat 08:33:59 PM 30.0142 -95.3419 18° North 266 306 4,100 878 Climbing Houston Center
Sat 08:34:14 PM 30.0239 -95.3358 29° Northeast 245 282 4,100  Level Houston Center
Sat 08:35:00 PM 30.0775 -95.3006 30° Northeast 263 303 4,100  Level Houston Center
Sat 08:35:15 PM 30.0892 -95.2956 20° North 261 300 4,100  Level Houston Center
Sat 08:35:55 PM 30.1425 -95.2758 18° North 259 298 4,100 387 Level Houston Center
Sat 08:36:17 PM 30.1575 -95.2708 16° North 256 295 4,500 2,951 Climbing Houston Center
Sat 08:36:56 PM 30.2153 -95.2475 19° North 269 310 7,100 3,148 Climbing Houston Center
Sat 08:37:18 PM 30.2294 -95.2433 14° North 267 307 7,700 3,313 Climbing Houston Center
Sat 08:38:03 PM 30.2947 -95.2186 18° North 268 308 10,800 3,148 Climbing Houston Center
Sat 08:38:19 PM 30.3014 -95.2172 10° North 269 310 10,900 779 Climbing Houston Center
Sat 08:39:20 PM 30.3797 -95.1886 17° North 293 337 11,800 1,279 Climbing Houston Center
Sat 08:40:21 PM 30.4878 -95.1400 21° North 346 398 13,500 1,721 Climbing Houston Center
Sat 08:41:22 PM 30.5769 -95.0819 29° Northeast 363 418 15,300 1,756 Climbing Houston Center
Sat 08:42:24 PM 30.6658 -95.0269 28° Northeast 361 415 17,100 1,756 Climbing Houston Center
Sat 08:43:25 PM 30.7558 -94.9703 28° Northeast 364 419 18,900 1,770 Climbing Houston Center
Sat 08:44:26 PM 30.8467 -94.9142 28° Northeast 367 422 20,700 1,770 Climbing Houston Center
Sat 08:45:27 PM 30.9383 -94.8569 28° Northeast 372 428 22,500 1,140 Climbing Houston Center
Sat 08:46:27 PM 31.0442 -94.7900 28° Northeast 388 447 23,000 250 Climbing Fort Worth Center
Sat 08:47:27 PM 31.1369 -94.7339 27° Northeast 380 437 23,000  Level Fort Worth Center
Sat 08:48:27 PM 31.2439 -94.6631 30° Northeast 405 466 23,000  Level Fort Worth Center
Sat 08:49:27 PM 31.3489 -94.5917 30° Northeast 424 488 23,000 -1,200 Level Fort Worth Center
Sat 08:50:27 PM 31.4639 -94.5103 31° Northeast 434 499 20,600 -2,450 Descending Fort Worth Center
Sat 08:51:27 PM 31.5583 -94.4464 30° Northeast 421 484 18,100 -2,450 Descending Fort Worth Center
Sat 08:52:27 PM 31.6550 -94.3797 30° Northeast 405 466 15,700 -2,300 Descending Fort Worth Center
Sat 08:53:27 PM 31.7475 -94.3158 30° Northeast 390 449 13,500 -1,636 Descending Fort Worth Center
Sat 08:54:06 PM 31.8028 -94.2772 31° Northeast 378 435 13,000 -500 Descending Fort Worth Center
Sat 08:54:27 PM 31.8356 -94.2542 31° Northeast 377 434 13,000  Level Fort Worth Center
Sat 08:55:27 PM 31.9053 -94.2053 31° Northeast 365 420 13,000 -500 Level Fort Worth Center
Sat 08:56:27 PM 32.0058 -94.1381 30° Northeast 353 406 12,000 -1,350 Descending Fort Worth Center
Sat 08:57:27 PM 32.0694 -94.0939 30° Northeast 310 357 10,300 -1,800 Descending Fort Worth Center
Sat 08:58:27 PM 32.1433 -94.0422 31° Northeast 287 330 8,400 -1,500 Descending Fort Worth Center
Sat 08:59:27 PM 32.2006 -93.9983 33° Northeast 282 325 7,300 -1,350 Descending Fort Worth Center
Sat 09:00:27 PM 32.2336 -93.9089 66° East 267 307 5,700 -1,600 Descending Fort Worth Center
Sat 09:01:27 PM 32.2625 -93.8292 67° East 261 300 4,100 -1,400 Descending Fort Worth Center
Sat 09:02:27 PM 32.3136 -93.7853 36° Northeast 229 264 2,900 -1,050 Descending Fort Worth Center
Sat 09:03:27 PM 32.3611 -93.7736 12° North 205 236 2,000 -850 Descending Fort Worth Center
Sat 09:04:27 PM 32.4014 -93.7867 345° North 143 165 1,200 -700 Descending Fort Worth Center
Sat 09:05:27 PM 32.4228 -93.8081 320° Northwest 123 142 600 -400 Descending Fort Worth Center
Sat 09:06:27 PM 32.4525 -93.8314 326° Northwest 123 142 400 -200 Descending Fort Worth Center

Login

Don't have an account? Register now (free) for customized features, flight alerts, and more!